sensor_id;sensor_type;location;lat;lon;timestamp;temperature;humidity
22558;DHT22;11445;53.816;8.902;2022-08-19T00:01:25;19.60;99.90
22558;DHT22;11445;53.816;8.902;2022-08-19T00:03:52;19.60;99.90
22558;DHT22;11445;53.816;8.902;2022-08-19T00:06:19;19.60;99.90
22558;DHT22;11445;53.816;8.902;2022-08-19T00:08:46;19.60;99.90
22558;DHT22;11445;53.816;8.902;2022-08-19T00:11:13;19.60;99.90
22558;DHT22;11445;53.816;8.902;2022-08-19T00:13:42;19.60;99.90
22558;DHT22;11445;53.816;8.902;2022-08-19T00:16:09;19.60;99.90
22558;DHT22;11445;53.816;8.902;2022-08-19T00:18:36;19.60;99.90
22558;DHT22;11445;53.816;8.902;2022-08-19T00:21:03;19.60;99.90
22558;DHT22;11445;53.816;8.902;2022-08-19T00:23:34;19.60;99.90
22558;DHT22;11445;53.816;8.902;2022-08-19T00:26:02;19.50;99.90
22558;DHT22;11445;53.816;8.902;2022-08-19T00:28:29;19.50;99.90
22558;DHT22;11445;53.816;8.902;2022-08-19T00:30:58;19.50;99.90
22558;DHT22;11445;53.816;8.902;2022-08-19T00:33:25;19.50;99.90
22558;DHT22;11445;53.816;8.902;2022-08-19T00:35:52;19.40;99.90
22558;DHT22;11445;53.816;8.902;2022-08-19T00:38:19;19.50;99.90
22558;DHT22;11445;53.816;8.902;2022-08-19T00:40:48;19.40;99.90
22558;DHT22;11445;53.816;8.902;2022-08-19T00:43:21;19.40;99.90
22558;DHT22;11445;53.816;8.902;2022-08-19T00:45:49;19.30;99.90
22558;DHT22;11445;53.816;8.902;2022-08-19T00:48:19;19.30;99.90
22558;DHT22;11445;53.816;8.902;2022-08-19T00:50:48;19.30;99.90
22558;DHT22;11445;53.816;8.902;2022-08-19T00:53:19;19.30;99.90
22558;DHT22;11445;53.816;8.902;2022-08-19T00:55:48;19.30;99.90
22558;DHT22;11445;53.816;8.902;2022-08-19T00:58:19;19.20;99.90
22558;DHT22;11445;53.816;8.902;2022-08-19T01:00:47;19.20;99.90
22558;DHT22;11445;53.816;8.902;2022-08-19T01:03:18;19.20;99.90
22558;DHT22;11445;53.816;8.902;2022-08-19T01:05:46;19.10;99.90
22558;DHT22;11445;53.816;8.902;2022-08-19T01:08:15;19.20;99.90
22558;DHT22;11445;53.816;8.902;2022-08-19T01:10:46;19.10;99.90
22558;DHT22;11445;53.816;8.902;2022-08-19T01:13:15;19.10;99.90
22558;DHT22;11445;53.816;8.902;2022-08-19T01:15:45;19.10;99.90
22558;DHT22;11445;53.816;8.902;2022-08-19T01:18:15;19.10;99.90
22558;DHT22;11445;53.816;8.902;2022-08-19T01:20:45;19.10;99.90
22558;DHT22;11445;53.816;8.902;2022-08-19T01:23:14;19.10;99.90
22558;DHT22;11445;53.816;8.902;2022-08-19T01:25:46;19.10;99.90
22558;DHT22;11445;53.816;8.902;2022-08-19T01:28:17;19.10;99.90
22558;DHT22;11445;53.816;8.902;2022-08-19T01:30:45;19.00;99.90
22558;DHT22;11445;53.816;8.902;2022-08-19T01:33:13;19.00;99.90
22558;DHT22;11445;53.816;8.902;2022-08-19T01:35:41;19.00;99.90
22558;DHT22;11445;53.816;8.902;2022-08-19T01:38:10;19.00;99.90
22558;DHT22;11445;53.816;8.902;2022-08-19T01:40:39;19.00;99.90
22558;DHT22;11445;53.816;8.902;2022-08-19T01:43:07;19.00;99.90
22558;DHT22;11445;53.816;8.902;2022-08-19T01:45:35;19.00;99.90
22558;DHT22;11445;53.816;8.902;2022-08-19T01:48:03;19.00;99.90
22558;DHT22;11445;53.816;8.902;2022-08-19T01:50:32;19.00;99.90
22558;DHT22;11445;53.816;8.902;2022-08-19T01:53:02;19.00;99.90
22558;DHT22;11445;53.816;8.902;2022-08-19T01:55:29;19.00;99.90
22558;DHT22;11445;53.816;8.902;2022-08-19T01:58:00;19.00;99.90
22558;DHT22;11445;53.816;8.902;2022-08-19T02:00:30;19.00;99.90
22558;DHT22;11445;53.816;8.902;2022-08-19T02:02:58;19.00;99.90
22558;DHT22;11445;53.816;8.902;2022-08-19T02:05:27;18.90;99.90
22558;DHT22;11445;53.816;8.902;2022-08-19T02:07:54;19.00;99.90
22558;DHT22;11445;53.816;8.902;2022-08-19T02:10:22;19.00;99.90
22558;DHT22;11445;53.816;8.902;2022-08-19T02:12:50;19.00;99.90
22558;DHT22;11445;53.816;8.902;2022-08-19T02:15:19;19.00;99.90
22558;DHT22;11445;53.816;8.902;2022-08-19T02:17:47;18.90;99.90
22558;DHT22;11445;53.816;8.902;2022-08-19T02:20:15;18.90;99.90
22558;DHT22;11445;53.816;8.902;2022-08-19T02:22:42;18.90;99.90
22558;DHT22;11445;53.816;8.902;2022-08-19T02:25:10;19.00;99.90
22558;DHT22;11445;53.816;8.902;2022-08-19T02:27:37;18.90;99.90
22558;DHT22;11445;53.816;8.902;2022-08-19T02:30:06;18.90;99.90
22558;DHT22;11445;53.816;8.902;2022-08-19T02:32:35;18.90;99.90
22558;DHT22;11445;53.816;8.902;2022-08-19T02:35:02;18.90;99.90
22558;DHT22;11445;53.816;8.902;2022-08-19T02:37:29;18.90;99.90
22558;DHT22;11445;53.816;8.902;2022-08-19T02:40:14;18.90;99.90
22558;DHT22;11445;53.816;8.902;2022-08-19T02:42:43;18.90;99.90
22558;DHT22;11445;53.816;8.902;2022-08-19T02:45:11;18.80;99.90
22558;DHT22;11445;53.816;8.902;2022-08-19T02:47:40;18.90;99.90
22558;DHT22;11445;53.816;8.902;2022-08-19T02:50:08;18.90;99.90
22558;DHT22;11445;53.816;8.902;2022-08-19T02:52:35;18.90;99.90
22558;DHT22;11445;53.816;8.902;2022-08-19T02:55:04;18.90;99.90
22558;DHT22;11445;53.816;8.902;2022-08-19T02:57:31;18.90;99.90
22558;DHT22;11445;53.816;8.902;2022-08-19T02:59:59;18.90;99.90
22558;DHT22;11445;53.816;8.902;2022-08-19T03:02:27;18.80;99.90
22558;DHT22;11445;53.816;8.902;2022-08-19T03:04:55;18.80;99.90
22558;DHT22;11445;53.816;8.902;2022-08-19T03:07:22;18.80;99.90
22558;DHT22;11445;53.816;8.902;2022-08-19T03:09:49;18.80;99.90
22558;DHT22;11445;53.816;8.902;2022-08-19T03:12:16;18.80;99.90
22558;DHT22;11445;53.816;8.902;2022-08-19T03:14:43;18.80;99.90
22558;DHT22;11445;53.816;8.902;2022-08-19T03:17:11;18.80;99.90
22558;DHT22;11445;53.816;8.902;2022-08-19T03:19:38;18.80;99.90
22558;DHT22;11445;53.816;8.902;2022-08-19T03:22:06;18.80;99.90
22558;DHT22;11445;53.816;8.902;2022-08-19T03:24:33;18.80;99.90
22558;DHT22;11445;53.816;8.902;2022-08-19T03:27:00;18.80;99.90
22558;DHT22;11445;53.816;8.902;2022-08-19T03:29:31;18.80;99.90
22558;DHT22;11445;53.816;8.902;2022-08-19T03:31:59;18.80;99.90
22558;DHT22;11445;53.816;8.902;2022-08-19T03:34:30;18.80;99.90
22558;DHT22;11445;53.816;8.902;2022-08-19T03:36:59;18.80;99.90
22558;DHT22;11445;53.816;8.902;2022-08-19T03:39:28;18.80;99.90
22558;DHT22;11445;53.816;8.902;2022-08-19T03:41:55;18.80;99.90
22558;DHT22;11445;53.816;8.902;2022-08-19T03:44:25;18.80;99.90
22558;DHT22;11445;53.816;8.902;2022-08-19T03:46:54;18.80;99.90
22558;DHT22;11445;53.816;8.902;2022-08-19T03:49:23;18.80;99.90
22558;DHT22;11445;53.816;8.902;2022-08-19T03:51:51;18.80;99.90
22558;DHT22;11445;53.816;8.902;2022-08-19T03:54:20;18.80;99.90
22558;DHT22;11445;53.816;8.902;2022-08-19T03:56:51;18.80;99.90
22558;DHT22;11445;53.816;8.902;2022-08-19T03:59:22;18.80;99.90
22558;DHT22;11445;53.816;8.902;2022-08-19T04:01:51;18.80;99.90
22558;DHT22;11445;53.816;8.902;2022-08-19T04:04:18;18.80;99.90
22558;DHT22;11445;53.816;8.902;2022-08-19T04:06:45;18.70;99.90
22558;DHT22;11445;53.816;8.902;2022-08-19T04:09:12;18.70;99.90
22558;DHT22;11445;53.816;8.902;2022-08-19T04:11:44;18.70;99.90
22558;DHT22;11445;53.816;8.902;2022-08-19T04:14:15;18.70;99.90
22558;DHT22;11445;53.816;8.902;2022-08-19T04:16:43;18.70;99.90
22558;DHT22;11445;53.816;8.902;2022-08-19T04:19:11;18.70;99.90
22558;DHT22;11445;53.816;8.902;2022-08-19T04:21:39;18.70;99.90
22558;DHT22;11445;53.816;8.902;2022-08-19T04:24:06;18.70;99.90
22558;DHT22;11445;53.816;8.902;2022-08-19T04:26:35;18.80;99.90
22558;DHT22;11445;53.816;8.902;2022-08-19T04:29:05;18.70;99.90
22558;DHT22;11445;53.816;8.902;2022-08-19T04:31:33;18.70;99.90
22558;DHT22;11445;53.816;8.902;2022-08-19T04:34:03;18.70;99.90
22558;DHT22;11445;53.816;8.902;2022-08-19T04:36:33;18.70;99.90
22558;DHT22;11445;53.816;8.902;2022-08-19T04:39:02;18.70;99.90
22558;DHT22;11445;53.816;8.902;2022-08-19T04:41:30;18.70;99.90
22558;DHT22;11445;53.816;8.902;2022-08-19T04:44:14;18.70;99.90
22558;DHT22;11445;53.816;8.902;2022-08-19T04:46:45;18.70;99.90
22558;DHT22;11445;53.816;8.902;2022-08-19T04:49:13;18.80;99.90
22558;DHT22;11445;53.816;8.902;2022-08-19T04:51:43;18.80;99.90
22558;DHT22;11445;53.816;8.902;2022-08-19T04:54:11;18.80;99.90
22558;DHT22;11445;53.816;8.902;2022-08-19T04:56:39;18.70;99.90
22558;DHT22;11445;53.816;8.902;2022-08-19T04:59:07;18.80;99.90
22558;DHT22;11445;53.816;8.902;2022-08-19T05:01:34;18.70;99.90
22558;DHT22;11445;53.816;8.902;2022-08-19T05:04:05;18.70;99.90
22558;DHT22;11445;53.816;8.902;2022-08-19T05:06:33;18.70;99.90
22558;DHT22;11445;53.816;8.902;2022-08-19T05:09:00;18.70;99.90
22558;DHT22;11445;53.816;8.902;2022-08-19T05:11:30;18.70;99.90
22558;DHT22;11445;53.816;8.902;2022-08-19T05:13:58;18.70;99.90
22558;DHT22;11445;53.816;8.902;2022-08-19T05:16:26;18.70;99.90
22558;DHT22;11445;53.816;8.902;2022-08-19T05:18:53;18.70;99.90
22558;DHT22;11445;53.816;8.902;2022-08-19T05:21:40;18.70;99.90
22558;DHT22;11445;53.816;8.902;2022-08-19T05:24:25;18.70;99.90
22558;DHT22;11445;53.816;8.902;2022-08-19T05:26:54;18.70;99.90
22558;DHT22;11445;53.816;8.902;2022-08-19T05:29:25;18.70;99.90
22558;DHT22;11445;53.816;8.902;2022-08-19T05:31:54;18.70;99.90
22558;DHT22;11445;53.816;8.902;2022-08-19T05:34:23;18.70;99.90
22558;DHT22;11445;53.816;8.902;2022-08-19T05:36:54;18.70;99.90
22558;DHT22;11445;53.816;8.902;2022-08-19T05:39:23;18.70;99.90
22558;DHT22;11445;53.816;8.902;2022-08-19T05:41:52;18.70;99.90
22558;DHT22;11445;53.816;8.902;2022-08-19T05:44:20;18.70;99.90
22558;DHT22;11445;53.816;8.902;2022-08-19T05:46:48;18.70;99.90
22558;DHT22;11445;53.816;8.902;2022-08-19T05:49:20;18.70;99.90
22558;DHT22;11445;53.816;8.902;2022-08-19T05:51:48;18.60;99.90
22558;DHT22;11445;53.816;8.902;2022-08-19T05:54:18;18.60;99.90
22558;DHT22;11445;53.816;8.902;2022-08-19T05:56:45;18.60;99.90
22558;DHT22;11445;53.816;8.902;2022-08-19T05:59:14;18.60;99.90
22558;DHT22;11445;53.816;8.902;2022-08-19T06:01:43;18.60;99.90
22558;DHT22;11445;53.816;8.902;2022-08-19T06:04:11;18.60;99.90
22558;DHT22;11445;53.816;8.902;2022-08-19T06:06:39;18.60;99.90
22558;DHT22;11445;53.816;8.902;2022-08-19T06:09:07;18.60;99.90
22558;DHT22;11445;53.816;8.902;2022-08-19T06:11:39;18.70;99.90
22558;DHT22;11445;53.816;8.902;2022-08-19T06:14:10;18.60;99.90
22558;DHT22;11445;53.816;8.902;2022-08-19T06:16:39;18.60;99.90
22558;DHT22;11445;53.816;8.902;2022-08-19T06:19:09;18.60;99.90
22558;DHT22;11445;53.816;8.902;2022-08-19T06:21:38;18.60;99.90
22558;DHT22;11445;53.816;8.902;2022-08-19T06:24:08;18.60;99.90
22558;DHT22;11445;53.816;8.902;2022-08-19T06:26:38;18.60;99.90
22558;DHT22;11445;53.816;8.902;2022-08-19T06:29:07;18.60;99.90
22558;DHT22;11445;53.816;8.902;2022-08-19T06:31:35;18.60;99.90
22558;DHT22;11445;53.816;8.902;2022-08-19T06:34:03;18.60;99.90
22558;DHT22;11445;53.816;8.902;2022-08-19T06:36:33;18.60;99.90
22558;DHT22;11445;53.816;8.902;2022-08-19T06:39:01;18.60;99.90
22558;DHT22;11445;53.816;8.902;2022-08-19T06:41:29;18.60;99.90
22558;DHT22;11445;53.816;8.902;2022-08-19T06:43:58;18.60;99.90
22558;DHT22;11445;53.816;8.902;2022-08-19T06:46:25;18.60;99.90
22558;DHT22;11445;53.816;8.902;2022-08-19T06:48:53;18.70;99.90
22558;DHT22;11445;53.816;8.902;2022-08-19T06:51:21;18.70;99.90
22558;DHT22;11445;53.816;8.902;2022-08-19T06:53:51;18.70;99.90
22558;DHT22;11445;53.816;8.902;2022-08-19T06:56:20;18.60;99.90
22558;DHT22;11445;53.816;8.902;2022-08-19T06:58:48;18.70;99.90
22558;DHT22;11445;53.816;8.902;2022-08-19T07:01:19;18.70;99.90
22558;DHT22;11445;53.816;8.902;2022-08-19T07:03:46;18.70;99.90
22558;DHT22;11445;53.816;8.902;2022-08-19T07:06:15;18.70;99.90
22558;DHT22;11445;53.816;8.902;2022-08-19T07:08:44;18.70;99.90
22558;DHT22;11445;53.816;8.902;2022-08-19T07:11:15;18.70;99.90
22558;DHT22;11445;53.816;8.902;2022-08-19T07:13:43;18.70;99.90
22558;DHT22;11445;53.816;8.902;2022-08-19T07:16:13;18.80;99.90
22558;DHT22;11445;53.816;8.902;2022-08-19T07:18:42;18.80;99.90
22558;DHT22;11445;53.816;8.902;2022-08-19T07:21:12;18.90;99.90
22558;DHT22;11445;53.816;8.902;2022-08-19T07:23:39;18.90;99.90
22558;DHT22;11445;53.816;8.902;2022-08-19T07:26:08;19.00;99.90
22558;DHT22;11445;53.816;8.902;2022-08-19T07:28:35;19.00;99.90
22558;DHT22;11445;53.816;8.902;2022-08-19T07:31:05;19.10;99.90
22558;DHT22;11445;53.816;8.902;2022-08-19T07:33:33;19.10;99.90
22558;DHT22;11445;53.816;8.902;2022-08-19T07:36:04;19.20;99.90
22558;DHT22;11445;53.816;8.902;2022-08-19T07:38:33;19.20;99.90
22558;DHT22;11445;53.816;8.902;2022-08-19T07:41:01;19.30;99.90
22558;DHT22;11445;53.816;8.902;2022-08-19T07:43:28;19.30;99.90
22558;DHT22;11445;53.816;8.902;2022-08-19T07:45:55;19.30;99.90
22558;DHT22;11445;53.816;8.902;2022-08-19T07:48:22;19.30;99.90
22558;DHT22;11445;53.816;8.902;2022-08-19T07:50:51;19.30;99.90
22558;DHT22;11445;53.816;8.902;2022-08-19T07:53:20;19.30;99.90
22558;DHT22;11445;53.816;8.902;2022-08-19T07:55:47;19.40;99.90
22558;DHT22;11445;53.816;8.902;2022-08-19T07:58:17;19.40;99.90
22558;DHT22;11445;53.816;8.902;2022-08-19T08:00:46;19.40;99.90
22558;DHT22;11445;53.816;8.902;2022-08-19T08:03:14;19.50;99.90
22558;DHT22;11445;53.816;8.902;2022-08-19T08:05:41;19.50;99.90
22558;DHT22;11445;53.816;8.902;2022-08-19T08:08:28;19.60;99.90
22558;DHT22;11445;53.816;8.902;2022-08-19T08:11:12;19.70;99.90
22558;DHT22;11445;53.816;8.902;2022-08-19T08:13:40;19.80;99.90
22558;DHT22;11445;53.816;8.902;2022-08-19T08:16:07;19.80;99.90
22558;DHT22;11445;53.816;8.902;2022-08-19T08:18:35;19.90;99.90
22558;DHT22;11445;53.816;8.902;2022-08-19T08:21:07;19.90;99.90
22558;DHT22;11445;53.816;8.902;2022-08-19T08:23:35;20.00;99.90
22558;DHT22;11445;53.816;8.902;2022-08-19T08:26:02;20.10;99.90
22558;DHT22;11445;53.816;8.902;2022-08-19T08:28:30;20.20;99.90
22558;DHT22;11445;53.816;8.902;2022-08-19T08:30:58;20.30;99.90
22558;DHT22;11445;53.816;8.902;2022-08-19T08:33:27;20.30;99.90
22558;DHT22;11445;53.816;8.902;2022-08-19T08:35:55;20.40;99.90
22558;DHT22;11445;53.816;8.902;2022-08-19T08:38:22;20.40;99.90
22558;DHT22;11445;53.816;8.902;2022-08-19T08:40:55;20.50;99.90
22558;DHT22;11445;53.816;8.902;2022-08-19T08:43:34;20.70;99.90
22558;DHT22;11445;53.816;8.902;2022-08-19T08:46:04;20.70;99.90
22558;DHT22;11445;53.816;8.902;2022-08-19T08:48:36;20.80;99.90
22558;DHT22;11445;53.816;8.902;2022-08-19T08:51:08;20.90;99.90
22558;DHT22;11445;53.816;8.902;2022-08-19T08:53:36;21.00;99.90
22558;DHT22;11445;53.816;8.902;2022-08-19T08:56:06;21.00;99.90
22558;DHT22;11445;53.816;8.902;2022-08-19T08:58:46;21.10;99.90
22558;DHT22;11445;53.816;8.902;2022-08-19T09:01:14;21.10;99.90
22558;DHT22;11445;53.816;8.902;2022-08-19T09:03:43;21.10;99.90
22558;DHT22;11445;53.816;8.902;2022-08-19T09:06:23;21.20;99.90
22558;DHT22;11445;53.816;8.902;2022-08-19T09:09:01;21.20;99.90
22558;DHT22;11445;53.816;8.902;2022-08-19T09:11:40;21.20;99.90
22558;DHT22;11445;53.816;8.902;2022-08-19T09:14:13;21.10;99.90
22558;DHT22;11445;53.816;8.902;2022-08-19T09:16:41;21.00;99.90
22558;DHT22;11445;53.816;8.902;2022-08-19T09:19:09;20.90;99.90
22558;DHT22;11445;53.816;8.902;2022-08-19T09:21:36;20.90;99.90
22558;DHT22;11445;53.816;8.902;2022-08-19T09:24:04;21.00;99.90
22558;DHT22;11445;53.816;8.902;2022-08-19T09:26:33;21.00;99.90
22558;DHT22;11445;53.816;8.902;2022-08-19T09:29:00;21.00;99.90
22558;DHT22;11445;53.816;8.902;2022-08-19T09:31:31;21.00;99.90
22558;DHT22;11445;53.816;8.902;2022-08-19T09:33:59;21.10;99.90
22558;DHT22;11445;53.816;8.902;2022-08-19T09:36:29;21.10;99.90
22558;DHT22;11445;53.816;8.902;2022-08-19T09:38:59;21.20;99.90
22558;DHT22;11445;53.816;8.902;2022-08-19T09:41:27;21.20;99.90
22558;DHT22;11445;53.816;8.902;2022-08-19T09:43:57;21.20;99.90
22558;DHT22;11445;53.816;8.902;2022-08-19T09:46:27;21.10;99.90
22558;DHT22;11445;53.816;8.902;2022-08-19T09:49:00;21.10;99.90
22558;DHT22;11445;53.816;8.902;2022-08-19T09:51:27;21.10;99.90
22558;DHT22;11445;53.816;8.902;2022-08-19T09:53:59;21.10;99.90
22558;DHT22;11445;53.816;8.902;2022-08-19T09:56:26;21.20;99.90
22558;DHT22;11445;53.816;8.902;2022-08-19T09:58:55;21.30;99.90
22558;DHT22;11445;53.816;8.902;2022-08-19T10:01:25;21.40;99.90
22558;DHT22;11445;53.816;8.902;2022-08-19T10:03:55;21.40;99.90
22558;DHT22;11445;53.816;8.902;2022-08-19T10:06:23;21.50;99.90
22558;DHT22;11445;53.816;8.902;2022-08-19T10:08:52;21.50;99.90
22558;DHT22;11445;53.816;8.902;2022-08-19T10:11:19;21.50;99.90
22558;DHT22;11445;53.816;8.902;2022-08-19T10:13:47;21.50;99.90
22558;DHT22;11445;53.816;8.902;2022-08-19T10:16:19;21.50;99.90
22558;DHT22;11445;53.816;8.902;2022-08-19T10:18:47;21.50;99.90
22558;DHT22;11445;53.816;8.902;2022-08-19T10:21:18;21.50;99.90
22558;DHT22;11445;53.816;8.902;2022-08-19T10:23:48;21.60;99.90
22558;DHT22;11445;53.816;8.902;2022-08-19T10:26:18;21.60;99.90
22558;DHT22;11445;53.816;8.902;2022-08-19T10:28:45;21.50;99.90
22558;DHT22;11445;53.816;8.902;2022-08-19T10:31:16;21.60;99.90
22558;DHT22;11445;53.816;8.902;2022-08-19T10:33:45;21.70;99.90
22558;DHT22;11445;53.816;8.902;2022-08-19T10:36:15;21.80;99.90
22558;DHT22;11445;53.816;8.902;2022-08-19T10:38:43;21.90;99.90
22558;DHT22;11445;53.816;8.902;2022-08-19T10:41:12;21.90;99.90
22558;DHT22;11445;53.816;8.902;2022-08-19T10:43:40;21.90;99.90
22558;DHT22;11445;53.816;8.902;2022-08-19T10:46:07;21.90;99.90
22558;DHT22;11445;53.816;8.902;2022-08-19T10:48:36;22.00;99.90
22558;DHT22;11445;53.816;8.902;2022-08-19T10:51:04;22.00;99.90
22558;DHT22;11445;53.816;8.902;2022-08-19T10:53:49;22.00;99.90
22558;DHT22;11445;53.816;8.902;2022-08-19T10:56:16;22.20;99.90
22558;DHT22;11445;53.816;8.902;2022-08-19T10:59:01;22.30;99.90
22558;DHT22;11445;53.816;8.902;2022-08-19T11:01:30;22.30;99.90
22558;DHT22;11445;53.816;8.902;2022-08-19T11:04:00;22.30;99.90
22558;DHT22;11445;53.816;8.902;2022-08-19T11:06:27;22.20;99.90
22558;DHT22;11445;53.816;8.902;2022-08-19T11:08:56;22.20;99.90
22558;DHT22;11445;53.816;8.902;2022-08-19T11:11:23;22.10;99.90
22558;DHT22;11445;53.816;8.902;2022-08-19T11:13:50;22.00;99.90
22558;DHT22;11445;53.816;8.902;2022-08-19T11:16:19;22.00;99.90
22558;DHT22;11445;53.816;8.902;2022-08-19T11:18:49;22.00;99.90
22558;DHT22;11445;53.816;8.902;2022-08-19T11:21:21;22.00;99.90
22558;DHT22;11445;53.816;8.902;2022-08-19T11:23:50;22.00;99.90
22558;DHT22;11445;53.816;8.902;2022-08-19T11:26:18;22.10;99.90
22558;DHT22;11445;53.816;8.902;2022-08-19T11:28:45;22.20;99.90
22558;DHT22;11445;53.816;8.902;2022-08-19T11:31:14;22.30;99.90
22558;DHT22;11445;53.816;8.902;2022-08-19T11:33:42;22.40;99.90
22558;DHT22;11445;53.816;8.902;2022-08-19T11:36:09;22.40;99.90
22558;DHT22;11445;53.816;8.902;2022-08-19T11:38:38;22.40;99.90
22558;DHT22;11445;53.816;8.902;2022-08-19T11:41:06;22.50;99.90
22558;DHT22;11445;53.816;8.902;2022-08-19T11:43:34;22.40;99.90
22558;DHT22;11445;53.816;8.902;2022-08-19T11:46:04;22.30;99.90
22558;DHT22;11445;53.816;8.902;2022-08-19T11:48:32;22.30;99.90
22558;DHT22;11445;53.816;8.902;2022-08-19T11:51:03;22.30;99.90
22558;DHT22;11445;53.816;8.902;2022-08-19T11:53:32;22.30;99.90
22558;DHT22;11445;53.816;8.902;2022-08-19T11:56:01;22.30;99.90
22558;DHT22;11445;53.816;8.902;2022-08-19T11:58:29;22.40;99.90
22558;DHT22;11445;53.816;8.902;2022-08-19T12:00:56;22.40;99.90
22558;DHT22;11445;53.816;8.902;2022-08-19T12:03:24;22.40;99.90
22558;DHT22;11445;53.816;8.902;2022-08-19T12:05:51;22.40;99.90
22558;DHT22;11445;53.816;8.902;2022-08-19T12:08:20;22.50;99.90
22558;DHT22;11445;53.816;8.902;2022-08-19T12:10:47;22.60;99.90
22558;DHT22;11445;53.816;8.902;2022-08-19T12:13:15;22.70;99.90
22558;DHT22;11445;53.816;8.902;2022-08-19T12:15:46;22.70;99.90
22558;DHT22;11445;53.816;8.902;2022-08-19T12:18:13;22.80;99.90
22558;DHT22;11445;53.816;8.902;2022-08-19T12:20:42;22.80;99.90
22558;DHT22;11445;53.816;8.902;2022-08-19T12:23:09;22.80;99.90
22558;DHT22;11445;53.816;8.902;2022-08-19T12:25:37;22.90;99.90
22558;DHT22;11445;53.816;8.902;2022-08-19T12:28:04;22.90;99.90
22558;DHT22;11445;53.816;8.902;2022-08-19T12:30:32;23.00;99.90
22558;DHT22;11445;53.816;8.902;2022-08-19T12:32:59;23.10;99.90
22558;DHT22;11445;53.816;8.902;2022-08-19T12:35:26;23.10;99.90
22558;DHT22;11445;53.816;8.902;2022-08-19T12:37:54;23.20;99.90
22558;DHT22;11445;53.816;8.902;2022-08-19T12:40:21;23.20;99.90
22558;DHT22;11445;53.816;8.902;2022-08-19T12:42:48;23.20;99.90
22558;DHT22;11445;53.816;8.902;2022-08-19T12:45:16;23.20;99.90
22558;DHT22;11445;53.816;8.902;2022-08-19T12:47:45;23.30;99.90
22558;DHT22;11445;53.816;8.902;2022-08-19T12:50:13;23.30;99.90
22558;DHT22;11445;53.816;8.902;2022-08-19T12:52:40;23.20;99.90
22558;DHT22;11445;53.816;8.902;2022-08-19T12:55:08;23.20;99.90
22558;DHT22;11445;53.816;8.902;2022-08-19T12:57:36;23.30;99.90
22558;DHT22;11445;53.816;8.902;2022-08-19T13:00:07;23.30;99.90
22558;DHT22;11445;53.816;8.902;2022-08-19T13:02:37;23.40;99.90
22558;DHT22;11445;53.816;8.902;2022-08-19T13:05:07;23.40;99.90
22558;DHT22;11445;53.816;8.902;2022-08-19T13:07:37;23.40;99.90
22558;DHT22;11445;53.816;8.902;2022-08-19T13:10:05;23.50;99.90
22558;DHT22;11445;53.816;8.902;2022-08-19T13:12:33;23.50;99.90
22558;DHT22;11445;53.816;8.902;2022-08-19T13:15:00;23.60;99.90
22558;DHT22;11445;53.816;8.902;2022-08-19T13:17:27;23.70;99.90
22558;DHT22;11445;53.816;8.902;2022-08-19T13:19:54;23.70;99.90
22558;DHT22;11445;53.816;8.902;2022-08-19T13:22:22;23.70;99.90
22558;DHT22;11445;53.816;8.902;2022-08-19T13:24:50;23.70;99.90
22558;DHT22;11445;53.816;8.902;2022-08-19T13:27:18;23.70;99.90
22558;DHT22;11445;53.816;8.902;2022-08-19T13:29:45;23.60;99.90
22558;DHT22;11445;53.816;8.902;2022-08-19T13:32:29;23.50;99.90
22558;DHT22;11445;53.816;8.902;2022-08-19T13:35:15;23.50;99.90
22558;DHT22;11445;53.816;8.902;2022-08-19T13:37:43;23.40;99.90
22558;DHT22;11445;53.816;8.902;2022-08-19T13:40:12;23.30;99.90
22558;DHT22;11445;53.816;8.902;2022-08-19T13:42:42;23.10;99.90
22558;DHT22;11445;53.816;8.902;2022-08-19T13:45:11;23.10;99.90
22558;DHT22;11445;53.816;8.902;2022-08-19T13:47:39;23.00;99.90
22558;DHT22;11445;53.816;8.902;2022-08-19T13:50:09;23.00;99.90
22558;DHT22;11445;53.816;8.902;2022-08-19T13:52:36;23.20;99.90
22558;DHT22;11445;53.816;8.902;2022-08-19T13:55:06;23.20;99.90
22558;DHT22;11445;53.816;8.902;2022-08-19T13:57:33;23.20;99.90
22558;DHT22;11445;53.816;8.902;2022-08-19T14:00:01;23.10;99.90
22558;DHT22;11445;53.816;8.902;2022-08-19T14:02:29;23.10;99.90
22558;DHT22;11445;53.816;8.902;2022-08-19T14:04:56;23.20;99.90
22558;DHT22;11445;53.816;8.902;2022-08-19T14:07:23;23.20;99.90
22558;DHT22;11445;53.816;8.902;2022-08-19T14:09:50;23.20;99.90
22558;DHT22;11445;53.816;8.902;2022-08-19T14:12:20;23.20;99.90
22558;DHT22;11445;53.816;8.902;2022-08-19T14:14:47;23.10;99.90
22558;DHT22;11445;53.816;8.902;2022-08-19T14:17:14;23.10;99.90
22558;DHT22;11445;53.816;8.902;2022-08-19T14:19:42;23.10;99.90
22558;DHT22;11445;53.816;8.902;2022-08-19T14:22:09;23.10;99.90
22558;DHT22;11445;53.816;8.902;2022-08-19T14:24:37;23.10;99.90
22558;DHT22;11445;53.816;8.902;2022-08-19T14:27:05;23.10;99.90
22558;DHT22;11445;53.816;8.902;2022-08-19T14:29:34;23.00;99.90
22558;DHT22;11445;53.816;8.902;2022-08-19T14:32:01;23.10;99.90
22558;DHT22;11445;53.816;8.902;2022-08-19T14:34:28;23.10;99.90
22558;DHT22;11445;53.816;8.902;2022-08-19T14:36:57;23.20;99.90
22558;DHT22;11445;53.816;8.902;2022-08-19T14:39:24;23.10;99.90
22558;DHT22;11445;53.816;8.902;2022-08-19T14:41:51;23.20;99.90
22558;DHT22;11445;53.816;8.902;2022-08-19T14:44:18;23.10;99.90
22558;DHT22;11445;53.816;8.902;2022-08-19T14:46:47;23.00;99.90
22558;DHT22;11445;53.816;8.902;2022-08-19T14:49:14;23.00;99.90
22558;DHT22;11445;53.816;8.902;2022-08-19T14:51:41;23.00;99.90
22558;DHT22;11445;53.816;8.902;2022-08-19T14:54:08;23.00;99.90
22558;DHT22;11445;53.816;8.902;2022-08-19T14:56:35;23.00;99.90
22558;DHT22;11445;53.816;8.902;2022-08-19T14:59:02;22.90;99.90
22558;DHT22;11445;53.816;8.902;2022-08-19T15:01:29;22.90;99.90
22558;DHT22;11445;53.816;8.902;2022-08-19T15:03:57;22.90;99.90
22558;DHT22;11445;53.816;8.902;2022-08-19T15:06:25;22.90;99.90
22558;DHT22;11445;53.816;8.902;2022-08-19T15:08:53;22.90;99.90
22558;DHT22;11445;53.816;8.902;2022-08-19T15:11:22;22.80;99.90
22558;DHT22;11445;53.816;8.902;2022-08-19T15:13:49;22.80;99.90
22558;DHT22;11445;53.816;8.902;2022-08-19T15:16:17;22.90;99.90
22558;DHT22;11445;53.816;8.902;2022-08-19T15:18:45;23.00;99.90
22558;DHT22;11445;53.816;8.902;2022-08-19T15:21:14;23.00;99.90
22558;DHT22;11445;53.816;8.902;2022-08-19T15:23:43;22.90;99.90
22558;DHT22;11445;53.816;8.902;2022-08-19T15:26:10;22.90;99.90
22558;DHT22;11445;53.816;8.902;2022-08-19T15:28:39;23.00;99.90
22558;DHT22;11445;53.816;8.902;2022-08-19T15:31:06;23.10;99.90
22558;DHT22;11445;53.816;8.902;2022-08-19T15:33:34;23.10;99.90
22558;DHT22;11445;53.816;8.902;2022-08-19T15:36:03;23.20;99.90
22558;DHT22;11445;53.816;8.902;2022-08-19T15:38:33;23.30;99.90
22558;DHT22;11445;53.816;8.902;2022-08-19T15:41:01;23.30;99.90